Time;durP1;ratioP1;P1;durP2;ratioP2;P2;SDS_P1;SDS_P2;PMS_P1;PMS_P2;Temp;Humidity;BMP_temperature;BMP_pressure;BME280_temperature;BME280_humidity;BME280_pressure;Samples;Min_cycle;Max_cycle;Signal;HPM_P1;HPM_P2
2021/09/24 00:01:14;;;;;;;17.67;10.55;;;;;;;;;;5048257;28;20052;-86
2021/09/24 00:03:41;;;;;;;16.83;11.05;;;;;;;;;;5051269;28;20041;-85
2021/09/24 00:06:08;;;;;;;18.20;10.90;;;;;;;;;;5049644;28;20041;-88
2021/09/24 00:08:35;;;;;;;18.35;11.32;;;;;;;;;;5053225;28;20385;-85
2021/09/24 00:11:02;;;;;;;20.42;11.18;;;;;;;;;;5051133;28;20037;-85
2021/09/24 00:13:30;;;;;;;18.55;11.20;;;;;;;;;;5051904;28;20045;-86
2021/09/24 00:15:57;;;;;;;17.02;10.73;;;;;;;;;;5050933;28;20038;-86
2021/09/24 00:18:23;;;;;;;18.63;10.85;;;;;;;;;;5050483;28;20045;-85
2021/09/24 00:20:50;;;;;;;16.45;10.77;;;;;;;;;;5051517;28;20049;-85
2021/09/24 00:23:17;;;;;;;16.08;10.15;;;;;;;;;;5051824;28;20033;-85
2021/09/24 00:25:43;;;;;;;16.83;9.88;;;;;;;;;;5054985;28;20036;-85
2021/09/24 00:28:10;;;;;;;15.13;9.45;;;;;;;;;;5051646;28;20612;-86
2021/09/24 00:30:38;;;;;;;18.05;11.15;;;;;;;;;;5050060;28;20037;-86
2021/09/24 00:33:05;;;;;;;19.20;11.05;;;;;;;;;;5046210;28;20473;-87
2021/09/24 00:35:32;;;;;;;19.58;10.38;;;;;;;;;;5054168;28;20063;-86
2021/09/24 00:37:59;;;;;;;16.05;9.85;;;;;;;;;;5052260;28;20072;-86
2021/09/24 00:40:26;;;;;;;16.77;10.73;;;;;;;;;;5045755;28;20091;-86
2021/09/24 00:42:52;;;;;;;15.38;10.07;;;;;;;;;;5053704;28;20126;-85
2021/09/24 00:45:19;;;;;;;17.02;9.75;;;;;;;;;;5049195;28;20066;-85
2021/09/24 00:47:47;;;;;;;15.57;9.90;;;;;;;;;;5034689;28;20102;-86
2021/09/24 00:50:14;;;;;;;19.17;11.35;;;;;;;;;;5035983;28;20049;-87
2021/09/24 00:52:41;;;;;;;16.80;10.60;;;;;;;;;;5055810;28;20048;-86
2021/09/24 00:55:09;;;;;;;16.20;9.63;;;;;;;;;;5053811;28;20048;-85
2021/09/24 00:57:36;;;;;;;17.75;10.30;;;;;;;;;;5029623;28;20076;-86
2021/09/24 01:00:04;;;;;;;19.15;11.05;;;;;;;;;;5048216;28;20052;-86
2021/09/24 01:02:31;;;;;;;17.73;11.25;;;;;;;;;;5040950;28;20132;-87
2021/09/24 01:04:59;;;;;;;17.02;9.63;;;;;;;;;;5046738;28;20437;-85
2021/09/24 01:07:26;;;;;;;17.08;10.63;;;;;;;;;;5053230;28;20045;-85
2021/09/24 01:09:53;;;;;;;15.90;9.88;;;;;;;;;;5051925;28;20374;-85
2021/09/24 01:12:20;;;;;;;18.77;9.80;;;;;;;;;;5054966;28;20068;-85
2021/09/24 01:14:57;;;;;;;14.98;10.10;;;;;;;;;;5047145;28;20115;-85
2021/09/24 01:17:24;;;;;;;16.98;10.60;;;;;;;;;;5052841;28;20045;-85
2021/09/24 01:19:51;;;;;;;14.13;8.90;;;;;;;;;;5037465;28;20566;-86
2021/09/24 01:22:19;;;;;;;15.07;9.57;;;;;;;;;;5053574;28;20518;-86
2021/09/24 01:24:46;;;;;;;14.43;9.60;;;;;;;;;;5053013;28;20037;-86
2021/09/24 01:27:13;;;;;;;15.70;9.68;;;;;;;;;;5051205;28;20486;-85
2021/09/24 01:29:40;;;;;;;14.23;8.77;;;;;;;;;;5052331;28;20125;-85
2021/09/24 01:32:07;;;;;;;17.20;9.35;;;;;;;;;;5052745;28;20045;-85
2021/09/24 01:34:34;;;;;;;14.32;9.18;;;;;;;;;;5052839;28;20052;-86
2021/09/24 01:37:01;;;;;;;15.93;10.02;;;;;;;;;;5044315;28;20037;-85
2021/09/24 01:39:29;;;;;;;14.35;10.07;;;;;;;;;;5051996;28;20049;-85
2021/09/24 01:41:56;;;;;;;15.88;9.45;;;;;;;;;;5033933;28;20064;-86
2021/09/24 01:44:23;;;;;;;20.67;10.57;;;;;;;;;;5053503;28;20037;-85
2021/09/24 01:46:49;;;;;;;18.67;9.75;;;;;;;;;;5048030;28;20041;-85
2021/09/24 01:49:16;;;;;;;15.80;10.55;;;;;;;;;;5052014;28;20041;-84
2021/09/24 01:51:45;;;;;;;16.95;10.40;;;;;;;;;;5053611;28;20388;-86
2021/09/24 01:54:12;;;;;;;15.95;9.98;;;;;;;;;;5049512;28;20037;-87
2021/09/24 01:56:41;;;;;;;16.08;9.18;;;;;;;;;;5027554;28;20469;-85
2021/09/24 01:59:08;;;;;;;15.95;9.27;;;;;;;;;;5053113;28;20040;-85
2021/09/24 02:01:35;;;;;;;14.93;9.27;;;;;;;;;;5051199;28;20040;-86
2021/09/24 02:04:02;;;;;;;15.25;9.30;;;;;;;;;;5035282;28;20482;-86
2021/09/24 02:06:28;;;;;;;14.07;9.07;;;;;;;;;;5030825;28;20037;-85
2021/09/24 02:08:55;;;;;;;14.80;9.60;;;;;;;;;;5032201;28;20057;-85
2021/09/24 02:11:22;;;;;;;15.35;9.57;;;;;;;;;;5035289;28;20477;-86
2021/09/24 02:13:51;;;;;;;16.88;9.27;;;;;;;;;;5034205;28;20083;-86
2021/09/24 02:16:18;;;;;;;12.55;8.30;;;;;;;;;;5050349;28;20037;-85
2021/09/24 02:18:44;;;;;;;15.38;9.82;;;;;;;;;;5049449;28;20048;-85
2021/09/24 02:21:11;;;;;;;13.90;9.23;;;;;;;;;;5047521;28;20078;-85
2021/09/24 02:23:38;;;;;;;15.55;9.27;;;;;;;;;;5033630;28;20485;-85
2021/09/24 02:26:06;;;;;;;15.80;9.63;;;;;;;;;;5035319;28;20048;-89
2021/09/24 02:28:33;;;;;;;15.85;9.48;;;;;;;;;;5044437;28;20033;-86
2021/09/24 02:31:08;;;;;;;14.13;9.18;;;;;;;;;;5052249;28;20052;-86
2021/09/24 02:33:35;;;;;;;16.30;9.38;;;;;;;;;;5050451;28;20060;-87
2021/09/24 02:36:02;;;;;;;13.65;8.50;;;;;;;;;;5030546;28;20053;-85
2021/09/24 02:38:28;;;;;;;16.80;10.05;;;;;;;;;;5053712;28;20046;-85
2021/09/24 02:40:55;;;;;;;14.40;8.88;;;;;;;;;;5038222;28;20037;-87
2021/09/24 02:43:22;;;;;;;14.68;9.60;;;;;;;;;;5030660;28;20108;-85
2021/09/24 02:45:49;;;;;;;13.57;8.35;;;;;;;;;;5044650;28;20047;-85
2021/09/24 02:48:17;;;;;;;14.38;8.85;;;;;;;;;;5018168;28;20436;-87
2021/09/24 02:50:44;;;;;;;14.38;9.82;;;;;;;;;;5034417;28;20401;-86
2021/09/24 02:53:11;;;;;;;15.70;10.38;;;;;;;;;;5051531;28;20405;-86
2021/09/24 02:55:37;;;;;;;16.25;8.88;;;;;;;;;;5041018;28;20041;-88
2021/09/24 02:58:04;;;;;;;16.33;9.65;;;;;;;;;;5033580;28;20041;-86
2021/09/24 03:00:31;;;;;;;17.23;9.95;;;;;;;;;;5052497;28;20500;-86
2021/09/24 03:02:58;;;;;;;15.68;10.05;;;;;;;;;;5052076;28;20049;-85
2021/09/24 03:05:26;;;;;;;20.33;9.15;;;;;;;;;;5032682;28;20435;-86
2021/09/24 03:07:53;;;;;;;14.43;8.88;;;;;;;;;;5051817;28;20045;-86
2021/09/24 03:10:20;;;;;;;15.77;8.90;;;;;;;;;;5045730;28;20490;-86
2021/09/24 03:12:47;;;;;;;15.48;9.35;;;;;;;;;;5048979;28;20049;-85
2021/09/24 03:15:14;;;;;;;14.70;8.35;;;;;;;;;;5017998;28;20041;-85
2021/09/24 03:17:41;;;;;;;13.63;8.45;;;;;;;;;;5050494;28;20416;-86
2021/09/24 03:20:09;;;;;;;11.35;7.70;;;;;;;;;;5041262;28;20121;-86
2021/09/24 03:22:37;;;;;;;13.70;8.65;;;;;;;;;;5035254;28;20099;-85
2021/09/24 03:25:05;;;;;;;13.27;8.20;;;;;;;;;;5033510;28;20037;-88
2021/09/24 03:27:31;;;;;;;12.18;6.85;;;;;;;;;;5032558;28;20487;-86
2021/09/24 03:29:58;;;;;;;12.90;7.82;;;;;;;;;;5045508;28;20048;-85
2021/09/24 03:32:25;;;;;;;14.32;8.00;;;;;;;;;;5037567;28;20039;-86
2021/09/24 03:34:52;;;;;;;13.43;8.38;;;;;;;;;;5034630;28;20053;-87
2021/09/24 03:37:18;;;;;;;12.43;7.57;;;;;;;;;;5033630;28;20443;-87
2021/09/24 03:39:47;;;;;;;11.32;7.75;;;;;;;;;;5033306;28;20046;-86
2021/09/24 03:42:13;;;;;;;10.73;6.05;;;;;;;;;;5050904;28;20487;-86
2021/09/24 03:44:40;;;;;;;13.45;7.60;;;;;;;;;;5034077;28;20037;-86
2021/09/24 03:47:07;;;;;;;13.45;7.30;;;;;;;;;;5032289;28;20041;-87
2021/09/24 03:49:35;;;;;;;15.02;7.85;;;;;;;;;;5033076;28;20036;-86
2021/09/24 03:52:04;;;;;;;11.43;6.88;;;;;;;;;;5051068;28;20516;-87
2021/09/24 03:54:31;;;;;;;13.68;7.25;;;;;;;;;;5051648;28;20037;-87
2021/09/24 03:56:59;;;;;;;12.48;7.75;;;;;;;;;;5033448;28;20047;-87
2021/09/24 03:59:27;;;;;;;11.55;6.78;;;;;;;;;;4999987;28;20040;-86
2021/09/24 04:01:53;;;;;;;11.05;6.72;;;;;;;;;;5050749;28;20045;-86
2021/09/24 04:04:20;;;;;;;9.68;6.32;;;;;;;;;;5045651;28;20413;-86
2021/09/24 04:06:47;;;;;;;9.93;6.45;;;;;;;;;;5050596;28;20056;-87
2021/09/24 04:09:14;;;;;;;11.63;6.07;;;;;;;;;;5027344;28;20469;-86
2021/09/24 04:11:40;;;;;;;10.38;5.82;;;;;;;;;;5031949;28;20496;-86
2021/09/24 04:14:09;;;;;;;11.93;7.35;;;;;;;;;;5031016;28;20638;-85
2021/09/24 04:16:35;;;;;;;13.32;7.43;;;;;;;;;;5051096;28;20500;-86
2021/09/24 04:19:02;;;;;;;10.75;6.47;;;;;;;;;;5017723;28;20057;-86
2021/09/24 04:21:29;;;;;;;12.05;7.28;;;;;;;;;;5029355;28;20433;-86
2021/09/24 04:23:56;;;;;;;10.63;6.68;;;;;;;;;;5049492;28;20048;-85
2021/09/24 04:26:22;;;;;;;14.52;8.13;;;;;;;;;;5033663;28;20041;-85
2021/09/24 04:28:49;;;;;;;11.15;6.55;;;;;;;;;;5050613;28;20037;-86
2021/09/24 04:31:17;;;;;;;9.55;6.40;;;;;;;;;;5050485;28;20051;-86
2021/09/24 04:33:46;;;;;;;12.75;6.65;;;;;;;;;;5049907;28;20041;-86
2021/09/24 04:36:12;;;;;;;9.65;6.38;;;;;;;;;;5049097;28;20044;-85
2021/09/24 04:38:39;;;;;;;9.80;6.85;;;;;;;;;;5051350;28;20045;-86
2021/09/24 04:41:06;;;;;;;11.68;7.38;;;;;;;;;;5026289;28;20037;-85
2021/09/24 04:43:32;;;;;;;10.95;6.82;;;;;;;;;;5030242;28;20045;-86
2021/09/24 04:45:59;;;;;;;11.00;6.15;;;;;;;;;;5032834;28;20044;-86
2021/09/24 04:48:27;;;;;;;11.95;6.85;;;;;;;;;;5048775;28;20401;-86
2021/09/24 04:50:54;;;;;;;15.02;6.32;;;;;;;;;;5017021;28;20041;-87
2021/09/24 04:53:21;;;;;;;11.23;6.82;;;;;;;;;;5051292;28;20041;-86
2021/09/24 04:55:48;;;;;;;13.18;7.55;;;;;;;;;;5032797;28;20045;-86
2021/09/24 04:58:14;;;;;;;12.85;6.53;;;;;;;;;;5032934;28;20105;-85
2021/09/24 05:00:41;;;;;;;10.75;6.43;;;;;;;;;;5033459;28;20389;-85
2021/09/24 05:03:08;;;;;;;11.02;6.90;;;;;;;;;;5047027;28;20059;-86
2021/09/24 05:05:36;;;;;;;13.02;6.90;;;;;;;;;;5030272;28;20044;-86
2021/09/24 05:08:03;;;;;;;12.32;7.82;;;;;;;;;;5032315;28;20049;-86
2021/09/24 05:10:30;;;;;;;12.73;7.43;;;;;;;;;;5052494;28;20059;-86
2021/09/24 05:12:56;;;;;;;13.52;7.30;;;;;;;;;;5029545;28;20049;-86
2021/09/24 05:15:23;;;;;;;14.52;7.80;;;;;;;;;;5026558;28;20053;-86
2021/09/24 05:17:50;;;;;;;10.73;6.78;;;;;;;;;;5051610;28;20404;-85
2021/09/24 05:20:17;;;;;;;13.73;7.40;;;;;;;;;;5036702;28;20048;-85
2021/09/24 05:22:45;;;;;;;12.40;7.47;;;;;;;;;;5039879;28;20048;-85
2021/09/24 05:25:12;;;;;;;18.58;8.63;;;;;;;;;;5036646;28;20044;-85
2021/09/24 05:27:39;;;;;;;14.80;8.15;;;;;;;;;;5054068;28;20060;-86
2021/09/24 05:30:09;;;;;;;12.32;7.78;;;;;;;;;;5046759;28;20060;-86
2021/09/24 05:32:36;;;;;;;14.07;6.68;;;;;;;;;;5011921;28;20048;-86
2021/09/24 05:35:03;;;;;;;12.20;7.63;;;;;;;;;;5048249;28;20053;-86
2021/09/24 05:37:30;;;;;;;11.77;6.75;;;;;;;;;;5025750;28;20068;-87
2021/09/24 05:39:59;;;;;;;14.10;7.60;;;;;;;;;;5034296;28;20037;-87
2021/09/24 05:42:27;;;;;;;12.48;8.38;;;;;;;;;;5046264;28;20064;-86
2021/09/24 05:44:55;;;;;;;14.30;7.30;;;;;;;;;;5052874;28;20473;-86
2021/09/24 05:47:22;;;;;;;11.13;7.45;;;;;;;;;;5013656;28;20092;-86
2021/09/24 05:49:56;;;;;;;11.18;6.90;;;;;;;;;;5053531;28;20071;-86
2021/09/24 05:52:23;;;;;;;11.45;7.38;;;;;;;;;;5050524;28;20045;-86
2021/09/24 05:54:50;;;;;;;13.02;7.53;;;;;;;;;;5033052;28;20049;-86
2021/09/24 05:57:19;;;;;;;12.73;7.03;;;;;;;;;;5033853;28;20041;-87
2021/09/24 05:59:45;;;;;;;13.02;6.68;;;;;;;;;;5041525;28;20049;-87
2021/09/24 06:02:12;;;;;;;12.13;7.53;;;;;;;;;;5035131;28;21130;-87
2021/09/24 06:04:39;;;;;;;12.45;6.78;;;;;;;;;;5034703;28;20060;-86
2021/09/24 06:07:06;;;;;;;14.15;8.13;;;;;;;;;;5034193;28;20037;-86
2021/09/24 06:09:33;;;;;;;11.48;7.80;;;;;;;;;;5052517;28;20041;-86
2021/09/24 06:11:59;;;;;;;13.50;7.95;;;;;;;;;;5034758;28;20045;-87
2021/09/24 06:14:28;;;;;;;12.00;7.15;;;;;;;;;;5019068;28;20040;-85
2021/09/24 06:16:55;;;;;;;12.45;6.88;;;;;;;;;;5032712;28;20057;-85
2021/09/24 06:19:21;;;;;;;14.70;7.43;;;;;;;;;;5039074;28;20048;-84
2021/09/24 06:21:48;;;;;;;12.70;7.25;;;;;;;;;;5002267;28;20114;-85
2021/09/24 06:24:16;;;;;;;12.13;7.30;;;;;;;;;;5019235;28;20074;-85
2021/09/24 06:26:42;;;;;;;15.15;7.88;;;;;;;;;;5029618;28;20045;-85
2021/09/24 06:29:09;;;;;;;14.15;8.23;;;;;;;;;;5053205;28;20045;-85
2021/09/24 06:31:37;;;;;;;14.43;7.80;;;;;;;;;;5034506;28;20564;-85
2021/09/24 06:34:04;;;;;;;16.42;8.27;;;;;;;;;;5032990;28;20044;-86
2021/09/24 06:36:31;;;;;;;13.38;7.30;;;;;;;;;;5017045;28;20040;-85
2021/09/24 06:38:58;;;;;;;12.45;7.25;;;;;;;;;;5040242;28;20037;-85
2021/09/24 06:41:25;;;;;;;13.57;7.65;;;;;;;;;;5028605;28;20037;-85
2021/09/24 06:43:52;;;;;;;12.07;7.03;;;;;;;;;;5034241;28;20191;-85
2021/09/24 06:46:18;;;;;;;11.57;6.13;;;;;;;;;;5052773;28;20043;-84
2021/09/24 06:48:47;;;;;;;10.68;6.57;;;;;;;;;;5034502;28;20045;-84
2021/09/24 06:51:14;;;;;;;24.08;7.97;;;;;;;;;;5015134;28;20041;-85
2021/09/24 06:53:41;;;;;;;15.90;7.70;;;;;;;;;;5026746;28;20610;-85
2021/09/24 06:56:08;;;;;;;13.88;6.50;;;;;;;;;;5032705;28;20041;-85
2021/09/24 06:58:36;;;;;;;11.07;6.15;;;;;;;;;;5049309;28;20041;-87
2021/09/24 07:01:02;;;;;;;10.32;6.10;;;;;;;;;;5033676;28;20906;-85
2021/09/24 07:03:29;;;;;;;10.20;6.43;;;;;;;;;;5052909;28;20041;-85
2021/09/24 07:05:57;;;;;;;11.77;6.35;;;;;;;;;;5044913;28;20477;-85
2021/09/24 07:08:24;;;;;;;11.27;6.97;;;;;;;;;;5036390;28;20037;-85
2021/09/24 07:10:51;;;;;;;10.50;6.85;;;;;;;;;;5033338;28;20571;-86
2021/09/24 07:13:18;;;;;;;9.45;5.80;;;;;;;;;;5021633;28;20045;-86
2021/09/24 07:15:44;;;;;;;10.38;6.43;;;;;;;;;;5054931;28;20049;-85
2021/09/24 07:18:11;;;;;;;10.60;6.15;;;;;;;;;;5017461;28;20056;-87
2021/09/24 07:20:38;;;;;;;12.20;6.70;;;;;;;;;;5052688;28;20045;-85
2021/09/24 07:23:07;;;;;;;10.27;5.97;;;;;;;;;;5035106;28;20455;-85
2021/09/24 07:25:33;;;;;;;10.52;6.63;;;;;;;;;;5046667;28;20620;-84
2021/09/24 07:28:00;;;;;;;11.77;6.60;;;;;;;;;;5033663;28;20049;-85
2021/09/24 07:30:27;;;;;;;12.07;6.85;;;;;;;;;;5053156;28;20037;-85
2021/09/24 07:32:54;;;;;;;10.32;6.07;;;;;;;;;;5032493;28;20110;-86
2021/09/24 07:35:21;;;;;;;9.50;5.35;;;;;;;;;;5014650;28;20053;-85
2021/09/24 07:37:47;;;;;;;11.95;5.75;;;;;;;;;;5015457;28;20048;-86
2021/09/24 07:40:15;;;;;;;11.35;6.28;;;;;;;;;;5043832;28;20394;-85
2021/09/24 07:42:42;;;;;;;9.85;6.15;;;;;;;;;;5051444;28;20041;-87
2021/09/24 07:45:10;;;;;;;8.43;5.50;;;;;;;;;;5028219;28;20040;-86
2021/09/24 07:47:37;;;;;;;9.63;5.90;;;;;;;;;;5047404;28;20041;-87
2021/09/24 07:50:04;;;;;;;8.18;5.88;;;;;;;;;;5016923;28;20053;-87
2021/09/24 07:52:31;;;;;;;11.82;6.10;;;;;;;;;;5034062;28;20045;-87
2021/09/24 07:54:58;;;;;;;9.18;5.88;;;;;;;;;;5050372;28;20390;-87
2021/09/24 07:57:26;;;;;;;7.95;5.75;;;;;;;;;;5040089;28;20057;-87
2021/09/24 07:59:53;;;;;;;8.75;5.50;;;;;;;;;;5031713;28;20041;-86
2021/09/24 08:02:20;;;;;;;9.55;5.68;;;;;;;;;;5049291;28;20063;-87
2021/09/24 08:04:47;;;;;;;10.82;5.53;;;;;;;;;;5034855;28;20045;-86
2021/09/24 08:07:14;;;;;;;8.23;5.43;;;;;;;;;;5028661;28;20037;-86
2021/09/24 08:09:41;;;;;;;8.15;5.25;;;;;;;;;;5046928;28;20049;-87
2021/09/24 08:12:08;;;;;;;7.72;5.28;;;;;;;;;;5051848;28;20044;-84
2021/09/24 08:14:36;;;;;;;7.07;4.68;;;;;;;;;;5018242;28;20094;-86
2021/09/24 08:17:03;;;;;;;10.05;5.47;;;;;;;;;;5026655;28;20048;-87
2021/09/24 08:19:30;;;;;;;7.20;5.40;;;;;;;;;;5018612;28;20049;-87
2021/09/24 08:21:57;;;;;;;8.15;4.72;;;;;;;;;;5033337;28;20440;-86
2021/09/24 08:24:24;;;;;;;7.13;4.80;;;;;;;;;;5034325;28;20777;-85
2021/09/24 08:26:51;;;;;;;8.43;5.57;;;;;;;;;;5046598;28;20049;-86
2021/09/24 08:29:17;;;;;;;16.40;5.53;;;;;;;;;;5025790;28;20048;-85
2021/09/24 08:31:46;;;;;;;7.93;4.93;;;;;;;;;;5048942;28;20037;-84
2021/09/24 08:34:12;;;;;;;7.13;5.22;;;;;;;;;;5030458;28;20473;-86
2021/09/24 08:36:39;;;;;;;8.73;5.28;;;;;;;;;;5027862;28;20053;-86
2021/09/24 08:39:07;;;;;;;6.68;4.82;;;;;;;;;;5033274;28;20044;-86
2021/09/24 08:41:34;;;;;;;7.25;5.05;;;;;;;;;;5034335;28;20120;-86
2021/09/24 08:44:00;;;;;;;6.22;4.22;;;;;;;;;;5050587;28;20052;-88
2021/09/24 08:46:28;;;;;;;12.98;5.25;;;;;;;;;;5036588;28;20040;-84
2021/09/24 08:48:55;;;;;;;7.97;5.32;;;;;;;;;;5054689;28;20040;-86
2021/09/24 08:51:22;;;;;;;7.38;5.05;;;;;;;;;;5053303;28;20389;-87
2021/09/24 08:53:49;;;;;;;6.22;4.35;;;;;;;;;;5038594;28;20098;-87
2021/09/24 08:56:16;;;;;;;5.70;4.10;;;;;;;;;;5010167;28;20037;-86
2021/09/24 08:58:43;;;;;;;6.05;4.13;;;;;;;;;;5034080;28;20063;-87
2021/09/24 09:01:10;;;;;;;10.25;4.97;;;;;;;;;;5048717;28;20087;-87
2021/09/24 09:03:38;;;;;;;5.50;4.28;;;;;;;;;;5034805;28;20052;-85
2021/09/24 09:06:08;;;;;;;7.93;4.75;;;;;;;;;;5050280;28;20385;-87
2021/09/24 09:08:34;;;;;;;8.63;4.72;;;;;;;;;;5028352;28;20536;-87
2021/09/24 09:11:03;;;;;;;7.05;4.28;;;;;;;;;;5050020;28;20045;-88
2021/09/24 09:13:32;;;;;;;6.15;3.72;;;;;;;;;;5056412;28;20047;-87
2021/09/24 09:16:00;;;;;;;5.10;3.40;;;;;;;;;;5051209;28;20049;-87
2021/09/24 09:18:31;;;;;;;4.68;3.58;;;;;;;;;;5054905;28;20047;-87
2021/09/24 09:20:58;;;;;;;6.22;3.47;;;;;;;;;;5021345;28;20055;-89
2021/09/24 09:23:26;;;;;;;5.10;3.78;;;;;;;;;;5035765;28;20666;-86
2021/09/24 09:25:55;;;;;;;6.00;3.42;;;;;;;;;;5052968;28;20099;-87
2021/09/24 09:28:30;;;;;;;5.10;3.70;;;;;;;;;;5046661;28;20068;-86
2021/09/24 09:30:57;;;;;;;4.57;3.25;;;;;;;;;;5054689;28;20060;-86
2021/09/24 09:33:25;;;;;;;7.68;3.83;;;;;;;;;;5035852;28;20064;-88
2021/09/24 09:35:54;;;;;;;6.97;3.60;;;;;;;;;;5052521;28;20489;-87
2021/09/24 09:38:24;;;;;;;9.73;3.97;;;;;;;;;;5052138;28;20072;-86
2021/09/24 09:41:08;;;;;;;4.53;3.22;;;;;;;;;;5053635;28;20484;-87
2021/09/24 09:43:39;;;;;;;5.68;3.72;;;;;;;;;;5055271;28;20048;-87
2021/09/24 09:46:07;;;;;;;6.28;3.72;;;;;;;;;;5051156;28;20469;-87
2021/09/24 09:48:34;;;;;;;5.55;3.30;;;;;;;;;;5049753;28;20045;-86
2021/09/24 09:51:01;;;;;;;4.72;3.38;;;;;;;;;;5019373;28;20118;-86
2021/09/24 09:53:28;;;;;;;7.53;4.13;;;;;;;;;;5020034;28;20044;-87
2021/09/24 09:55:59;;;;;;;6.10;4.25;;;;;;;;;;5037034;28;20048;-85
2021/09/24 09:58:28;;;;;;;6.38;3.20;;;;;;;;;;5033305;28;20545;-87
2021/09/24 10:01:03;;;;;;;5.45;3.13;;;;;;;;;;5023753;28;20083;-87
2021/09/24 10:03:36;;;;;;;4.50;3.08;;;;;;;;;;5049474;28;20092;-86
2021/09/24 10:06:05;;;;;;;4.95;3.60;;;;;;;;;;5047918;28;20060;-87
2021/09/24 10:08:33;;;;;;;5.32;3.30;;;;;;;;;;5032568;28;20037;-87
2021/09/24 10:11:06;;;;;;;8.90;3.55;;;;;;;;;;5034362;28;20760;-87
2021/09/24 10:13:36;;;;;;;4.65;3.40;;;;;;;;;;5052950;28;20041;-87
2021/09/24 10:16:04;;;;;;;6.85;3.75;;;;;;;;;;5034506;28;20043;-87
2021/09/24 10:18:41;;;;;;;4.90;3.45;;;;;;;;;;5052473;28;20053;-89
2021/09/24 10:21:08;;;;;;;5.85;3.58;;;;;;;;;;5045945;28;20516;-88
2021/09/24 10:23:40;;;;;;;6.70;3.67;;;;;;;;;;5055688;28;20113;-87
2021/09/24 10:26:12;;;;;;;5.20;3.20;;;;;;;;;;5034750;28;20048;-88
2021/09/24 10:28:42;;;;;;;7.22;3.65;;;;;;;;;;5028191;28;20699;-86
2021/09/24 10:31:15;;;;;;;4.38;3.40;;;;;;;;;;5052963;28;20080;-85
2021/09/24 10:33:47;;;;;;;5.40;3.28;;;;;;;;;;5053021;28;20075;-86
2021/09/24 10:36:41;;;;;;;5.20;3.58;;;;;;;;;;5054203;28;20041;-86
2021/09/24 10:39:44;;;;;;;8.23;3.40;;;;;;;;;;5034244;28;20041;-88
2021/09/24 10:42:40;;;;;;;7.53;3.38;;;;;;;;;;5030115;28;20040;-87
2021/09/24 10:45:10;;;;;;;4.20;3.38;;;;;;;;;;5039561;28;20439;-88
2021/09/24 10:47:59;;;;;;;5.22;3.90;;;;;;;;;;5031161;28;20053;-87
2021/09/24 10:51:02;;;;;;;4.43;3.20;;;;;;;;;;5054347;28;20041;-86
2021/09/24 10:53:40;;;;;;;5.00;3.10;;;;;;;;;;5050289;28;20045;-86
2021/09/24 10:56:28;;;;;;;5.13;3.13;;;;;;;;;;5042627;28;20044;-89
2021/09/24 10:58:57;;;;;;;5.03;3.50;;;;;;;;;;5044780;28;20045;-87
2021/09/24 11:01:39;;;;;;;5.00;3.40;;;;;;;;;;5052299;28;20128;-88
2021/09/24 11:04:14;;;;;;;4.53;3.10;;;;;;;;;;5049787;28;20045;-86
2021/09/24 11:06:44;;;;;;;7.43;3.50;;;;;;;;;;5032092;28;20052;-86
2021/09/24 11:09:13;;;;;;;4.60;2.67;;;;;;;;;;5051890;28;20056;-87
2021/09/24 11:11:42;;;;;;;4.53;3.10;;;;;;;;;;5021185;28;20055;-88
2021/09/24 11:14:25;;;;;;;4.22;2.90;;;;;;;;;;5045303;28;20060;-87
2021/09/24 11:16:53;;;;;;;5.03;3.33;;;;;;;;;;5035598;28;20051;-86
2021/09/24 11:19:38;;;;;;;4.95;3.15;;;;;;;;;;5054593;28;20041;-87
2021/09/24 11:22:12;;;;;;;4.20;3.00;;;;;;;;;;5049426;28;20041;-86
2021/09/24 11:24:41;;;;;;;3.83;2.83;;;;;;;;;;5044119;28;20065;-86
2021/09/24 11:27:10;;;;;;;4.85;3.22;;;;;;;;;;5050159;28;20041;-87
2021/09/24 11:29:41;;;;;;;4.30;2.95;;;;;;;;;;5035932;28;20073;-87
2021/09/24 11:32:11;;;;;;;5.25;3.17;;;;;;;;;;5033640;28;20489;-86
2021/09/24 11:34:57;;;;;;;3.45;2.60;;;;;;;;;;5035507;28;20037;-86
2021/09/24 11:37:26;;;;;;;4.07;2.58;;;;;;;;;;5028986;28;20398;-86
2021/09/24 11:39:59;;;;;;;4.57;2.95;;;;;;;;;;5053411;28;20040;-87
2021/09/24 11:42:26;;;;;;;5.15;3.08;;;;;;;;;;5051962;28;20120;-87
2021/09/24 11:44:56;;;;;;;3.92;2.83;;;;;;;;;;5052542;28;20045;-87
2021/09/24 11:47:26;;;;;;;4.03;2.85;;;;;;;;;;5029719;28;20041;-88
2021/09/24 11:49:55;;;;;;;5.70;3.30;;;;;;;;;;5033100;28;20047;-87
2021/09/24 11:52:22;;;;;;;5.60;3.03;;;;;;;;;;5036804;28;20047;-87
2021/09/24 11:54:49;;;;;;;5.22;3.35;;;;;;;;;;5018566;28;20121;-88
2021/09/24 11:57:16;;;;;;;5.88;3.00;;;;;;;;;;5051357;28;20047;-86
2021/09/24 11:59:44;;;;;;;4.25;3.30;;;;;;;;;;5031774;28;20048;-85
2021/09/24 12:02:21;;;;;;;4.60;3.22;;;;;;;;;;5050768;28;20067;-85
2021/09/24 12:05:04;;;;;;;5.35;3.00;;;;;;;;;;5051829;28;20041;-86
2021/09/24 12:07:31;;;;;;;4.50;3.08;;;;;;;;;;5031629;28;20053;-87
2021/09/24 12:10:02;;;;;;;7.28;2.97;;;;;;;;;;5050971;28;20044;-87
2021/09/24 12:12:30;;;;;;;5.18;3.75;;;;;;;;;;5047752;28;20099;-88
2021/09/24 12:14:58;;;;;;;3.88;2.90;;;;;;;;;;5032189;28;20053;-89
2021/09/24 12:17:28;;;;;;;4.30;3.10;;;;;;;;;;5048059;28;20143;-86
2021/09/24 12:19:56;;;;;;;4.10;3.20;;;;;;;;;;5049844;28;20078;-87
2021/09/24 12:22:23;;;;;;;4.18;3.05;;;;;;;;;;5000767;28;20045;-88
2021/09/24 12:24:50;;;;;;;6.05;3.40;;;;;;;;;;5034501;28;20654;-88
2021/09/24 12:27:21;;;;;;;5.05;3.63;;;;;;;;;;5050856;28;20195;-89
2021/09/24 12:29:49;;;;;;;5.68;2.90;;;;;;;;;;5049252;28;20045;-89
2021/09/24 12:32:26;;;;;;;3.58;2.70;;;;;;;;;;5050617;28;20071;-86
2021/09/24 12:35:01;;;;;;;3.50;2.60;;;;;;;;;;5050652;28;20045;-88
2021/09/24 12:37:34;;;;;;;3.85;2.67;;;;;;;;;;5057986;28;20444;-89
2021/09/24 12:40:04;;;;;;;4.95;3.10;;;;;;;;;;5050735;28;20378;-88
2021/09/24 12:42:36;;;;;;;5.43;2.47;;;;;;;;;;5018488;28;20839;-88
2021/09/24 12:45:06;;;;;;;4.28;3.13;;;;;;;;;;5036757;28;20116;-88
2021/09/24 12:47:34;;;;;;;6.05;2.67;;;;;;;;;;5052180;28;20068;-88
2021/09/24 12:50:05;;;;;;;4.72;2.80;;;;;;;;;;5034823;28;20124;-88
2021/09/24 12:52:34;;;;;;;4.38;2.83;;;;;;;;;;5033712;28;20063;-87
2021/09/24 12:55:02;;;;;;;4.15;2.90;;;;;;;;;;5049503;28;20608;-87
2021/09/24 12:57:29;;;;;;;3.70;2.70;;;;;;;;;;5035002;28;20044;-85
2021/09/24 12:59:57;;;;;;;4.35;3.20;;;;;;;;;;5049646;28;20128;-85
2021/09/24 13:02:26;;;;;;;4.28;3.10;;;;;;;;;;5046942;28;20497;-85
2021/09/24 13:04:53;;;;;;;3.83;2.63;;;;;;;;;;5038972;28;20504;-85
2021/09/24 13:07:22;;;;;;;3.80;2.70;;;;;;;;;;5050542;28;20042;-85
2021/09/24 13:09:53;;;;;;;4.82;3.20;;;;;;;;;;5046389;28;20050;-85
2021/09/24 13:12:20;;;;;;;10.35;3.10;;;;;;;;;;5030521;28;20048;-85
2021/09/24 13:14:47;;;;;;;4.28;2.97;;;;;;;;;;5035152;28;20095;-85
2021/09/24 13:17:15;;;;;;;5.70;3.50;;;;;;;;;;5018197;28;20057;-85
2021/09/24 13:19:42;;;;;;;4.43;2.72;;;;;;;;;;5034753;28;20524;-86
2021/09/24 13:22:09;;;;;;;9.55;3.47;;;;;;;;;;5017652;28;20393;-85
2021/09/24 13:24:37;;;;;;;4.00;2.95;;;;;;;;;;5018579;28;20473;-85
2021/09/24 13:27:04;;;;;;;3.90;2.90;;;;;;;;;;5034039;28;20041;-85
2021/09/24 13:29:31;;;;;;;3.85;3.00;;;;;;;;;;5051196;28;20404;-86
2021/09/24 13:31:57;;;;;;;3.55;2.85;;;;;;;;;;5027474;28;20041;-86
2021/09/24 13:34:24;;;;;;;4.13;2.97;;;;;;;;;;5049716;28;20062;-85
2021/09/24 13:36:51;;;;;;;3.58;2.60;;;;;;;;;;5050540;28;20374;-85
2021/09/24 13:39:18;;;;;;;4.80;3.10;;;;;;;;;;5036303;28;20045;-85
2021/09/24 13:41:46;;;;;;;3.78;2.75;;;;;;;;;;5017492;28;20044;-86
2021/09/24 13:44:13;;;;;;;4.25;2.33;;;;;;;;;;5029901;28;20057;-86
2021/09/24 13:46:40;;;;;;;3.72;2.33;;;;;;;;;;5034900;28;20125;-86
2021/09/24 13:49:07;;;;;;;3.53;2.72;;;;;;;;;;5056139;28;20382;-86
2021/09/24 13:51:33;;;;;;;3.15;2.38;;;;;;;;;;5053913;28;20049;-86
2021/09/24 13:54:00;;;;;;;3.20;2.30;;;;;;;;;;5049345;28;20037;-86
2021/09/24 13:56:29;;;;;;;4.70;2.53;;;;;;;;;;5052351;28;20123;-85
2021/09/24 13:58:58;;;;;;;4.38;2.60;;;;;;;;;;5036985;28;20052;-86
2021/09/24 14:01:24;;;;;;;4.35;2.35;;;;;;;;;;5033864;28;20032;-86
2021/09/24 14:03:51;;;;;;;3.67;2.38;;;;;;;;;;5033223;28;20048;-86
2021/09/24 14:06:18;;;;;;;2.83;1.90;;;;;;;;;;5016701;28;20037;-85
2021/09/24 14:08:45;;;;;;;3.10;2.00;;;;;;;;;;5052673;28;20041;-86
2021/09/24 14:11:12;;;;;;;4.80;2.30;;;;;;;;;;5034455;28;20037;-86
2021/09/24 14:13:39;;;;;;;2.58;1.95;;;;;;;;;;5053287;28;20041;-84
2021/09/24 14:16:07;;;;;;;4.05;2.22;;;;;;;;;;5056356;28;20033;-84
2021/09/24 14:18:34;;;;;;;4.00;1.85;;;;;;;;;;5056054;28;20055;-83
2021/09/24 14:21:00;;;;;;;3.17;2.10;;;;;;;;;;5036839;28;20056;-83
2021/09/24 14:23:29;;;;;;;2.97;2.20;;;;;;;;;;5057625;28;20032;-84
2021/09/24 14:25:56;;;;;;;2.55;1.70;;;;;;;;;;5056011;28;20048;-83
2021/09/24 14:28:22;;;;;;;3.17;2.25;;;;;;;;;;5054715;28;20049;-83
2021/09/24 14:31:05;;;;;;;2.90;1.80;;;;;;;;;;5035850;28;20041;-83
2021/09/24 14:33:33;;;;;;;2.30;1.70;;;;;;;;;;5035135;28;20041;-82
2021/09/24 14:35:59;;;;;;;3.10;2.10;;;;;;;;;;5022184;28;20102;-82
2021/09/24 14:38:26;;;;;;;6.25;2.40;;;;;;;;;;5038000;28;20041;-83
2021/09/24 14:40:53;;;;;;;2.67;2.03;;;;;;;;;;5035842;28;20053;-82
2021/09/24 14:43:20;;;;;;;2.92;1.90;;;;;;;;;;5037527;28;20044;-83